Time;durP1;ratioP1;P1;durP2;ratioP2;P2;SDS_P1;SDS_P2;PMS_P1;PMS_P2;Temp;Humidity;BMP_temperature;BMP_pressure;BME280_temperature;BME280_humidity;BME280_pressure;Samples;Min_cycle;Max_cycle;Signal;HPM_P1;HPM_P2
2021/05/27 00:02:14;;;;;;;3.92;2.90;;;;;;;8.98;86.56;100988.81;5057885;28;20035;-48
2021/05/27 00:04:39;;;;;;;3.65;2.75;;;;;;;8.95;86.89;100990.06;5066559;28;20036;-46
2021/05/27 00:07:04;;;;;;;4.97;3.05;;;;;;;8.87;87.69;100986.91;5068673;28;20026;-45
2021/05/27 00:09:30;;;;;;;3.70;3.20;;;;;;;8.86;87.33;100995.97;5069674;28;20036;-46
2021/05/27 00:14:25;;;;;;;4.50;3.55;;;;;;;8.62;89.41;101001.28;4981093;28;20463;-48
2021/05/27 00:16:51;;;;;;;5.63;3.20;;;;;;;8.51;90.62;101006.59;4986396;28;20022;-48
2021/05/27 00:19:16;;;;;;;4.80;3.30;;;;;;;8.42;91.28;101001.56;4986253;28;20030;-48
2021/05/27 00:21:42;;;;;;;3.60;3.10;;;;;;;8.60;89.25;101008.69;4986769;28;20041;-48
2021/05/27 00:24:08;;;;;;;5.45;2.97;;;;;;;8.64;88.90;101012.56;4986120;28;20026;-48
2021/05/27 00:26:34;;;;;;;3.58;3.15;;;;;;;8.65;88.74;101011.50;4983342;28;20030;-48
2021/05/27 00:28:59;;;;;;;3.83;3.35;;;;;;;8.71;87.88;101009.78;4985129;28;20031;-47
2021/05/27 00:31:25;;;;;;;4.13;3.00;;;;;;;8.68;88.38;101011.06;4985224;28;20042;-48
2021/05/27 00:33:50;;;;;;;3.20;2.90;;;;;;;8.81;86.87;101011.91;4987109;28;20498;-48
2021/05/27 00:36:16;;;;;;;4.97;2.60;;;;;;;8.85;86.47;101007.72;4985210;28;20296;-48
2021/05/27 00:38:41;;;;;;;5.43;3.00;;;;;;;8.77;87.56;101012.34;4986215;28;20026;-47
2021/05/27 00:41:07;;;;;;;4.35;3.17;;;;;;;8.68;88.97;101015.56;4983814;28;20445;-49
2021/05/27 00:43:32;;;;;;;4.13;2.88;;;;;;;8.73;88.44;101021.84;4984889;28;20592;-50
2021/05/27 00:45:58;;;;;;;3.65;3.03;;;;;;;8.83;86.91;101015.97;4986215;28;20072;-48
2021/05/27 00:51:07;;;;;;;4.43;2.95;;;;;;;8.86;86.56;101018.16;4983964;28;20041;-49
2021/05/27 00:53:33;;;;;;;4.30;2.80;;;;;;;8.88;85.94;101015.28;4985571;28;20042;-48
2021/05/27 00:55:59;;;;;;;3.40;2.90;;;;;;;8.88;85.89;101010.75;4979656;28;20096;-48
2021/05/27 00:58:26;;;;;;;5.30;2.95;;;;;;;8.89;85.71;101012.38;4985939;28;20029;-48
2021/05/27 01:00:52;;;;;;;7.13;3.00;;;;;;;8.87;86.10;101014.47;4981551;28;20746;-49
2021/05/27 01:03:18;;;;;;;6.22;3.38;;;;;;;8.84;86.98;101008.75;4972961;28;20331;-48
2021/05/27 01:05:44;;;;;;;4.93;3.20;;;;;;;8.91;85.86;101014.81;4979863;28;20455;-48
2021/05/27 01:08:10;;;;;;;3.63;2.78;;;;;;;8.92;86.04;101011.09;4974511;28;20038;-49
2021/05/27 01:10:35;;;;;;;5.35;3.50;;;;;;;8.95;85.87;101015.97;4982698;28;20030;-48
2021/05/27 01:13:02;;;;;;;5.15;2.72;;;;;;;8.91;86.22;101015.63;4980468;28;20161;-48
2021/05/27 01:15:29;;;;;;;4.53;3.05;;;;;;;8.91;85.97;101017.47;4985532;28;20583;-48
2021/05/27 01:18:16;;;;;;;3.50;2.90;;;;;;;8.87;86.80;101013.63;4985874;28;20216;-48
2021/05/27 01:20:50;;;;;;;4.97;2.75;;;;;;;9.00;85.55;101018.78;4984089;28;20061;-48
2021/05/27 01:23:16;;;;;;;4.68;2.45;;;;;;;9.06;84.65;101013.31;4984260;28;20061;-49
2021/05/27 01:25:44;;;;;;;3.40;2.88;;;;;;;9.06;84.46;101017.84;4985307;28;20477;-48
2021/05/27 01:28:10;;;;;;;4.45;2.90;;;;;;;9.07;84.31;101014.94;4982531;28;20050;-48
2021/05/27 01:30:35;;;;;;;3.05;2.58;;;;;;;9.03;84.65;101021.81;4985780;28;20112;-48
2021/05/27 01:33:01;;;;;;;3.65;3.00;;;;;;;8.97;85.68;101014.69;4985079;28;20491;-48
2021/05/27 01:35:27;;;;;;;4.07;2.72;;;;;;;8.91;86.52;101009.47;4986346;28;20373;-48
2021/05/27 01:37:53;;;;;;;3.08;2.65;;;;;;;8.90;86.01;101015.84;4984416;28;20272;-48
2021/05/27 01:40:22;;;;;;;5.80;2.95;;;;;;;8.85;86.25;101016.53;4985136;28;20061;-48
2021/05/27 01:42:48;;;;;;;3.50;2.80;;;;;;;8.82;86.06;101018.88;4983996;28;20037;-48
2021/05/27 01:45:14;;;;;;;4.03;2.67;;;;;;;8.75;86.19;101033.13;4984805;28;20613;-48
2021/05/27 01:47:41;;;;;;;4.80;2.63;;;;;;;8.78;85.72;101031.84;4985284;28;20129;-48
2021/05/27 01:50:10;;;;;;;3.30;2.92;;;;;;;8.60;88.15;101029.25;4983505;28;20080;-47
2021/05/27 01:52:36;;;;;;;5.97;3.03;;;;;;;8.61;87.61;101031.69;4983665;28;20038;-48
2021/05/27 01:55:02;;;;;;;5.53;3.13;;;;;;;8.56;87.78;101031.56;4984218;28;20018;-48
2021/05/27 01:57:28;;;;;;;4.38;2.95;;;;;;;8.64;86.61;101041.94;4985169;28;20057;-48
2021/05/27 01:59:53;;;;;;;3.85;2.90;;;;;;;8.67;86.03;101041.47;4984757;28;21098;-49
2021/05/27 02:02:19;;;;;;;3.90;2.80;;;;;;;8.62;86.21;101046.69;4984172;28;20049;-48
2021/05/27 02:04:44;;;;;;;4.82;2.90;;;;;;;8.59;85.82;101044.47;4984296;28;20033;-48
2021/05/27 02:07:11;;;;;;;7.38;3.50;;;;;;;8.53;86.21;101040.03;4983030;28;20551;-48
2021/05/27 02:09:37;;;;;;;4.45;2.75;;;;;;;8.45;86.64;101046.53;4983313;28;20061;-48
2021/05/27 02:12:03;;;;;;;4.72;2.85;;;;;;;8.42;86.56;101049.63;4985045;28;20503;-48
2021/05/27 02:14:28;;;;;;;4.10;3.28;;;;;;;8.35;86.98;101058.78;4984860;28;20154;-48
2021/05/27 02:16:54;;;;;;;5.05;3.30;;;;;;;8.37;86.40;101059.34;4984189;28;20064;-48
2021/05/27 02:19:20;;;;;;;6.95;3.47;;;;;;;8.31;86.14;101058.38;4984861;28;20026;-48
2021/05/27 02:21:45;;;;;;;5.32;3.42;;;;;;;8.18;87.55;101064.69;4981559;28;20122;-49
2021/05/27 02:24:11;;;;;;;4.20;3.33;;;;;;;8.12;87.48;101059.44;4983783;28;20113;-48
2021/05/27 02:26:37;;;;;;;4.95;3.53;;;;;;;8.12;87.07;101065.59;4982275;28;20271;-48
2021/05/27 02:29:03;;;;;;;5.18;3.45;;;;;;;8.12;86.76;101065.59;4984011;28;20026;-48
2021/05/27 02:31:29;;;;;;;5.60;3.60;;;;;;;8.12;86.44;101070.13;4984042;28;20203;-48
2021/05/27 02:33:55;;;;;;;6.18;4.13;;;;;;;8.08;86.51;101064.44;4984028;28;20317;-47
2021/05/27 02:36:21;;;;;;;5.88;4.22;;;;;;;7.99;87.23;101068.41;4982320;28;20022;-48
2021/05/27 02:38:47;;;;;;;6.53;4.22;;;;;;;7.97;86.71;101065.16;4984544;28;20084;-48
2021/05/27 02:41:12;;;;;;;6.93;5.00;;;;;;;7.91;86.64;101068.72;4983587;28;20034;-48
2021/05/27 02:43:38;;;;;;;5.60;4.30;;;;;;;7.79;88.34;101065.97;4983439;28;20320;-48
2021/05/27 02:46:04;;;;;;;5.72;4.07;;;;;;;7.68;89.45;101073.88;4983158;28;20026;-48
2021/05/27 02:48:30;;;;;;;5.65;4.13;;;;;;;7.75;88.62;101075.47;4984556;28;20536;-46
2021/05/27 02:50:58;;;;;;;4.63;3.88;;;;;;;7.80;87.97;101075.59;4982674;28;20085;-46
2021/05/27 02:53:24;;;;;;;4.55;4.00;;;;;;;7.71;88.70;101073.44;4984098;28;20092;-45
2021/05/27 02:55:52;;;;;;;6.68;4.25;;;;;;;7.77;87.70;101067.22;4983289;28;20033;-46
2021/05/27 02:58:18;;;;;;;5.25;4.07;;;;;;;7.73;88.28;101071.38;4982686;28;20057;-46
2021/05/27 03:00:44;;;;;;;6.75;4.43;;;;;;;7.74;87.70;101075.69;4983590;28;20133;-45
2021/05/27 03:03:09;;;;;;;6.18;4.40;;;;;;;7.61;88.95;101075.81;4983573;28;20037;-45
2021/05/27 03:05:35;;;;;;;6.50;4.47;;;;;;;7.62;88.58;101082.78;4982246;28;20049;-45
2021/05/27 03:08:01;;;;;;;7.25;4.60;;;;;;;7.59;89.08;101084.03;4982455;28;20026;-46
2021/05/27 03:10:26;;;;;;;6.70;4.40;;;;;;;7.60;88.41;101087.50;4981493;28;20034;-45
2021/05/27 03:12:52;;;;;;;7.30;5.30;;;;;;;7.61;87.90;101086.47;4981325;28;20033;-45
2021/05/27 03:15:18;;;;;;;7.75;5.50;;;;;;;7.61;88.11;101087.28;4983346;28;20033;-45
2021/05/27 03:17:44;;;;;;;9.82;5.65;;;;;;;7.56;88.61;101092.47;4984357;28;20078;-46
2021/05/27 03:20:11;;;;;;;8.07;5.78;;;;;;;7.51;88.63;101089.63;4981833;28;20030;-45
2021/05/27 03:22:37;;;;;;;10.15;5.97;;;;;;;7.48;89.02;101084.75;4983087;28;20526;-46
2021/05/27 03:25:03;;;;;;;10.70;5.35;;;;;;;7.35;91.04;101085.66;4982482;28;20389;-45
2021/05/27 03:27:29;;;;;;;13.45;6.75;;;;;;;7.50;89.86;101088.81;4985038;28;20034;-46
2021/05/27 03:29:54;;;;;;;10.50;6.30;;;;;;;7.69;88.34;101097.66;4982922;28;20468;-45
2021/05/27 03:32:19;;;;;;;12.15;7.25;;;;;;;7.68;89.21;101090.69;4981113;28;20069;-46
2021/05/27 03:34:45;;;;;;;9.73;6.30;;;;;;;7.85;88.46;101096.28;4984266;28;20026;-45
2021/05/27 03:37:10;;;;;;;11.18;6.93;;;;;;;8.01;87.79;101095.69;4981219;28;20084;-45
2021/05/27 03:39:36;;;;;;;10.27;6.43;;;;;;;8.14;87.94;101100.88;4983080;28;20459;-46
2021/05/27 03:42:02;;;;;;;11.88;7.30;;;;;;;8.38;87.30;101098.38;4981830;28;20018;-45
2021/05/27 03:44:27;;;;;;;9.55;6.32;;;;;;;8.50;87.56;101096.56;4983467;28;20037;-45
2021/05/27 03:46:53;;;;;;;11.55;6.65;;;;;;;8.55;87.59;101102.03;4983309;28;20461;-46
2021/05/27 03:49:18;;;;;;;10.45;7.00;;;;;;;8.55;87.43;101099.38;4984785;28;20100;-45
2021/05/27 03:51:44;;;;;;;9.48;6.47;;;;;;;8.51;87.93;101095.53;4986461;28;20030;-45
2021/05/27 03:54:09;;;;;;;11.00;6.70;;;;;;;8.63;87.15;101100.94;4986867;28;20447;-46
2021/05/27 03:56:35;;;;;;;11.07;6.55;;;;;;;8.68;86.97;101098.38;4986639;28;20524;-46
2021/05/27 04:01:45;;;;;;;10.98;6.65;;;;;;;8.68;87.66;101104.53;4988364;28;20391;-46
2021/05/27 04:07:15;;;;;;;10.32;7.70;;;;;;;8.66;87.82;101097.81;4987845;28;20041;-45
2021/05/27 04:09:42;;;;;;;8.23;5.78;;;;;;;8.68;87.48;101101.06;4988043;28;20026;-45
2021/05/27 04:17:38;;;;;;;9.68;7.05;;;;;;;8.68;87.11;101104.53;4985664;28;20693;-45
2021/05/27 04:20:05;;;;;;;11.10;7.43;;;;;;;8.72;87.32;101108.38;4982894;28;20037;-45
2021/05/27 04:22:31;;;;;;;8.35;6.10;;;;;;;8.72;87.49;101104.91;4981617;28;20404;-45
2021/05/27 04:24:56;;;;;;;9.75;7.50;;;;;;;8.77;86.91;101108.50;4985911;28;20034;-45
2021/05/27 04:27:22;;;;;;;10.57;7.15;;;;;;;8.84;86.95;101104.94;4985578;28;20041;-46
2021/05/27 04:29:47;;;;;;;12.82;7.30;;;;;;;8.86;86.65;101102.88;4983919;28;20031;-46
2021/05/27 04:32:53;;;;;;;10.07;7.40;;;;;;;8.88;87.20;101100.78;4982799;28;20460;-45
2021/05/27 04:34:58;;;;;;;12.30;6.15;;;;;;;8.82;86.91;101112.38;4983866;28;20065;-46
2021/05/27 04:37:24;;;;;;;13.45;8.05;;;;;;;9.01;86.80;101103.25;4985382;28;20072;-45
2021/05/27 04:39:49;;;;;;;11.75;7.32;;;;;;;9.13;86.35;101111.28;4984573;28;20125;-45
2021/05/27 04:42:15;;;;;;;12.20;8.00;;;;;;;9.33;85.01;101101.09;4985215;28;20034;-46
2021/05/27 04:44:40;;;;;;;9.10;6.70;;;;;;;9.39;84.38;101110.88;4983158;28;20544;-46
2021/05/27 04:47:06;;;;;;;11.63;7.30;;;;;;;9.50;83.83;101104.69;4985905;28;20097;-45
2021/05/27 04:49:31;;;;;;;9.35;6.07;;;;;;;9.52;83.04;101107.19;4983035;28;20034;-46
2021/05/27 04:51:56;;;;;;;11.10;6.65;;;;;;;9.45;83.23;101111.81;4984514;28;20030;-46
2021/05/27 04:54:22;;;;;;;10.38;6.85;;;;;;;9.36;83.21;101114.00;4982201;28;20033;-46
2021/05/27 04:56:48;;;;;;;9.48;6.57;;;;;;;9.51;82.27;101110.88;4981681;28;20034;-45
2021/05/27 04:59:13;;;;;;;11.63;6.28;;;;;;;9.43;82.97;101112.03;4980162;28;20027;-46
2021/05/27 05:01:39;;;;;;;9.32;6.75;;;;;;;9.69;82.29;101113.44;4977776;28;20030;-46
2021/05/27 05:04:05;;;;;;;9.48;6.10;;;;;;;9.84;81.87;101115.63;4980479;28;20034;-46
2021/05/27 05:06:30;;;;;;;8.40;6.50;;;;;;;9.99;81.55;101119.47;4981937;28;20034;-45
2021/05/27 05:08:57;;;;;;;8.50;6.05;;;;;;;10.02;81.46;101128.06;4981417;28;20693;-46
2021/05/27 05:11:23;;;;;;;10.55;6.70;;;;;;;10.08;81.09;101127.16;4982517;28;20265;-46
2021/05/27 05:13:48;;;;;;;8.43;6.57;;;;;;;10.13;80.74;101124.56;4982042;28;20030;-46
2021/05/27 05:16:14;;;;;;;8.30;6.07;;;;;;;9.98;81.53;101133.91;4984643;28;20076;-45
2021/05/27 05:18:39;;;;;;;7.45;6.20;;;;;;;9.94;81.48;101138.09;4984970;28;20022;-45
2021/05/27 05:21:05;;;;;;;7.95;6.00;;;;;;;9.80;82.46;101136.72;4985275;28;20034;-45
2021/05/27 05:23:31;;;;;;;12.52;7.30;;;;;;;9.85;82.45;101134.13;4982613;28;20042;-45
2021/05/27 05:25:56;;;;;;;8.65;6.05;;;;;;;9.84;82.15;101140.53;4983910;28;20117;-46
2021/05/27 05:28:21;;;;;;;9.73;6.03;;;;;;;9.91;80.83;101143.13;4985357;28;20093;-47
2021/05/27 05:30:47;;;;;;;7.40;6.00;;;;;;;9.96;80.63;101140.53;4984002;28;20042;-48
2021/05/27 05:33:13;;;;;;;9.80;6.78;;;;;;;10.03;80.54;101145.75;4984180;28;20034;-49
2021/05/27 05:35:38;;;;;;;11.77;6.22;;;;;;;10.02;80.47;101150.31;4984422;28;20040;-47
2021/05/27 05:38:05;;;;;;;9.10;6.18;;;;;;;10.00;80.96;101147.88;4982185;28;20026;-47
2021/05/27 05:40:31;;;;;;;9.15;6.75;;;;;;;10.02;80.89;101152.16;4984892;28;20034;-48
2021/05/27 05:42:57;;;;;;;8.73;5.75;;;;;;;9.91;80.59;101149.28;4984226;28;20551;-48
2021/05/27 05:45:24;;;;;;;7.95;5.65;;;;;;;9.97;80.29;101153.69;4983285;28;20026;-48
2021/05/27 05:47:51;;;;;;;8.05;5.78;;;;;;;10.01;79.92;101154.03;4985194;28;20041;-48
2021/05/27 05:51:04;;;;;;;7.85;5.07;;;;;;;10.05;79.63;101155.19;4985099;28;20512;-48
2021/05/27 05:53:06;;;;;;;8.20;5.75;;;;;;;10.15;78.93;101151.94;4974993;28;20416;-48
2021/05/27 05:55:33;;;;;;;9.25;5.68;;;;;;;10.18;78.93;101154.94;4984865;28;20025;-48
2021/05/27 05:57:58;;;;;;;8.45;6.25;;;;;;;10.36;78.47;101158.56;4983452;28;20980;-48
2021/05/27 06:00:25;;;;;;;7.85;5.95;;;;;;;10.29;78.57;101156.00;4984930;28;20049;-49
2021/05/27 06:02:51;;;;;;;8.68;5.82;;;;;;;10.24;79.23;101155.91;4985921;28;20019;-48
2021/05/27 06:05:16;;;;;;;5.95;5.25;;;;;;;10.34;78.68;101164.16;4984932;28;20038;-48
2021/05/27 06:07:41;;;;;;;6.55;5.28;;;;;;;10.18;79.20;101164.84;4985014;28;20194;-48
2021/05/27 06:10:08;;;;;;;10.15;6.47;;;;;;;10.29;78.99;101169.41;4985353;28;20388;-48
2021/05/27 06:12:33;;;;;;;8.43;5.93;;;;;;;10.32;78.96;101170.78;4984371;28;20030;-50
2021/05/27 06:14:58;;;;;;;8.48;6.28;;;;;;;10.28;79.26;101175.81;4984739;28;20034;-48
2021/05/27 06:17:24;;;;;;;7.38;5.57;;;;;;;10.23;79.38;101181.88;4977606;28;20038;-50
2021/05/27 06:19:50;;;;;;;7.35;5.93;;;;;;;10.37;78.82;101174.38;4987794;28;20033;-51
2021/05/27 06:22:15;;;;;;;10.98;5.22;;;;;;;10.24;79.85;101182.69;4984211;28;20034;-49
2021/05/27 06:24:41;;;;;;;8.65;6.63;;;;;;;10.44;78.74;101180.44;4984386;28;20145;-51
2021/05/27 06:27:06;;;;;;;9.02;7.07;;;;;;;10.50;79.42;101182.16;4982302;28;20026;-49
2021/05/27 06:29:32;;;;;;;10.73;5.95;;;;;;;10.48;79.59;101186.94;4985071;28;20022;-49
2021/05/27 06:31:57;;;;;;;10.20;6.72;;;;;;;10.50;79.58;101189.38;4984757;28;20893;-49
2021/05/27 06:34:23;;;;;;;7.82;6.03;;;;;;;10.42;79.88;101193.25;4985120;28;20057;-52
2021/05/27 06:36:48;;;;;;;6.68;5.55;;;;;;;10.19;80.37;101193.25;4984254;28;20037;-49
2021/05/27 06:39:14;;;;;;;9.23;6.20;;;;;;;10.49;79.36;101199.28;4984251;28;20026;-48
2021/05/27 06:41:39;;;;;;;8.52;6.28;;;;;;;10.51;79.47;101193.69;4984221;28;20073;-50
2021/05/27 06:44:05;;;;;;;8.35;6.13;;;;;;;10.52;79.78;101201.50;4985069;28;20580;-50
2021/05/27 06:46:31;;;;;;;7.30;5.35;;;;;;;10.62;78.81;101202.78;4984051;28;20034;-50
2021/05/27 06:48:57;;;;;;;7.15;5.57;;;;;;;10.92;78.47;101206.03;4984181;28;20037;-52
2021/05/27 06:51:22;;;;;;;8.77;5.85;;;;;;;11.05;76.65;101213.00;4984387;28;20022;-51
2021/05/27 06:53:48;;;;;;;7.13;6.15;;;;;;;11.46;75.96;101214.53;4985361;28;20489;-50
2021/05/27 06:56:14;;;;;;;7.18;5.78;;;;;;;11.53;74.91;101211.69;4981688;28;20543;-48
2021/05/27 06:58:39;;;;;;;6.28;5.50;;;;;;;11.74;74.66;101211.78;4984699;28;20026;-51
2021/05/27 07:01:05;;;;;;;6.20;5.28;;;;;;;11.92;73.47;101221.50;4980914;28;20018;-49
2021/05/27 07:03:31;;;;;;;8.07;5.72;;;;;;;11.98;73.57;101200.88;4984024;28;20041;-49
2021/05/27 07:05:58;;;;;;;7.38;5.45;;;;;;;11.94;73.15;101207.81;4984091;28;20353;-51
2021/05/27 07:08:24;;;;;;;5.15;4.05;;;;;;;12.04;72.77;101207.97;4983684;28;20023;-52
2021/05/27 07:10:50;;;;;;;7.57;5.03;;;;;;;12.01;72.94;101203.06;4983717;28;20320;-49
2021/05/27 07:13:15;;;;;;;7.05;4.80;;;;;;;12.51;71.81;101204.84;4983565;28;20673;-50
2021/05/27 07:15:41;;;;;;;5.78;4.68;;;;;;;12.77;69.56;101214.03;4984403;28;20484;-49
2021/05/27 07:18:06;;;;;;;5.13;4.40;;;;;;;12.88;68.36;101208.50;4983652;28;20566;-50
2021/05/27 07:20:33;;;;;;;5.57;4.32;;;;;;;12.92;68.56;101217.69;4983741;28;20030;-51
2021/05/27 07:22:59;;;;;;;5.20;4.35;;;;;;;12.84;68.23;101210.09;4983446;28;20034;-49
2021/05/27 07:25:25;;;;;;;6.45;4.18;;;;;;;12.99;67.33;101218.34;4981290;28;20368;-49
2021/05/27 07:27:52;;;;;;;5.45;3.20;;;;;;;12.63;67.90;101219.78;4985261;28;20096;-53
2021/05/27 07:30:19;;;;;;;4.30;3.90;;;;;;;12.75;68.30;101214.31;4983519;28;20033;-51
2021/05/27 07:32:45;;;;;;;5.53;4.35;;;;;;;12.81;68.69;101221.34;4984159;28;20032;-50
2021/05/27 07:35:11;;;;;;;4.57;4.13;;;;;;;12.34;70.35;101216.44;4983195;28;20039;-52
2021/05/27 07:37:37;;;;;;;6.50;4.20;;;;;;;12.27;70.49;101212.31;4984001;28;20057;-51
2021/05/27 07:40:04;;;;;;;4.53;3.67;;;;;;;12.09;71.59;101232.22;4981214;28;20030;-50
2021/05/27 07:42:30;;;;;;;5.43;4.13;;;;;;;12.29;70.62;101226.31;4983940;28;20039;-49
2021/05/27 07:44:55;;;;;;;4.82;3.70;;;;;;;12.13;71.43;101235.22;4981560;28;20109;-52
2021/05/27 07:47:21;;;;;;;8.55;4.30;;;;;;;12.47;70.67;101230.59;4981554;28;20037;-51
2021/05/27 07:49:46;;;;;;;5.97;4.53;;;;;;;12.53;70.39;101224.22;4984348;28;20030;-50
2021/05/27 07:52:12;;;;;;;3.25;2.78;;;;;;;12.25;70.66;101219.81;4981616;28;20110;-52
2021/05/27 07:54:37;;;;;;;3.53;3.17;;;;;;;12.39;69.75;101219.22;4981817;28;20284;-51
2021/05/27 07:57:03;;;;;;;6.22;3.40;;;;;;;12.44;70.10;101223.03;4983598;28;20025;-49
2021/05/27 07:59:28;;;;;;;4.43;3.83;;;;;;;12.48;69.86;101226.84;4983417;28;20308;-50
2021/05/27 08:01:54;;;;;;;3.50;3.20;;;;;;;12.17;70.24;101234.47;4983679;28;20030;-49
2021/05/27 08:04:20;;;;;;;5.63;3.80;;;;;;;12.25;70.86;101234.06;4983896;28;20041;-51
2021/05/27 08:06:45;;;;;;;5.63;3.60;;;;;;;12.24;71.01;101237.81;4983093;28;20499;-49
2021/05/27 08:09:11;;;;;;;3.03;2.72;;;;;;;12.18;71.40;101238.78;4983721;28;20165;-51
2021/05/27 08:11:44;;;;;;;3.75;3.38;;;;;;;11.86;71.81;101243.16;4982339;28;20018;-51
2021/05/27 08:14:10;;;;;;;4.40;2.78;;;;;;;11.80;72.68;101244.91;4982670;28;20030;-51
2021/05/27 08:16:36;;;;;;;3.40;3.10;;;;;;;11.99;72.03;101240.91;4982229;28;20037;-51
2021/05/27 08:19:03;;;;;;;3.22;2.92;;;;;;;12.10;71.14;101239.22;4983590;28;20030;-50
2021/05/27 08:21:29;;;;;;;5.20;3.38;;;;;;;12.52;70.25;101233.34;4983204;28;20042;-48
2021/05/27 08:23:56;;;;;;;3.83;3.38;;;;;;;12.69;69.08;101244.84;4982815;28;20026;-50
2021/05/27 08:26:21;;;;;;;2.92;2.63;;;;;;;12.85;68.27;101245.84;4982128;28;20113;-52
2021/05/27 08:28:47;;;;;;;3.63;2.67;;;;;;;13.33;67.23;101244.28;4983554;28;20109;-49
2021/05/27 08:31:14;;;;;;;4.55;2.80;;;;;;;13.35;66.33;101242.94;4983359;28;20042;-50
2021/05/27 08:33:39;;;;;;;3.13;2.83;;;;;;;13.13;67.69;101234.09;4981747;28;20022;-51
2021/05/27 08:36:06;;;;;;;4.93;2.85;;;;;;;13.15;68.49;101237.34;4982603;28;20045;-52
2021/05/27 08:38:31;;;;;;;3.47;3.17;;;;;;;12.57;68.42;101245.00;4984815;28;20599;-51
2021/05/27 08:40:57;;;;;;;4.22;2.95;;;;;;;12.53;68.43;101241.16;4984586;28;20057;-49
2021/05/27 08:43:22;;;;;;;2.78;2.47;;;;;;;12.20;69.80;101246.59;4985714;28;20038;-51
2021/05/27 08:45:49;;;;;;;3.22;2.83;;;;;;;12.42;69.85;101235.91;4985170;28;20092;-49
2021/05/27 08:48:17;;;;;;;4.75;3.38;;;;;;;12.29;69.32;101248.63;4985821;28;20034;-50
2021/05/27 08:50:45;;;;;;;3.38;3.08;;;;;;;12.18;70.52;101248.72;4985543;28;20125;-49
2021/05/27 08:53:15;;;;;;;4.10;3.03;;;;;;;12.30;71.71;101247.56;4985320;28;20501;-51
2021/05/27 08:55:41;;;;;;;3.17;2.88;;;;;;;12.20;71.45;101246.59;4982249;28;20026;-50
2021/05/27 08:58:08;;;;;;;4.63;3.28;;;;;;;12.20;70.69;101255.47;4985401;28;20159;-48
2021/05/27 09:00:35;;;;;;;2.55;2.35;;;;;;;12.24;71.16;101259.31;4982494;28;20113;-49
2021/05/27 09:03:02;;;;;;;4.05;2.67;;;;;;;12.18;71.90;101256.78;4983071;28;20602;-50
2021/05/27 09:05:31;;;;;;;4.25;3.05;;;;;;;12.35;70.77;101262.94;4982658;28;20076;-48
2021/05/27 09:07:57;;;;;;;4.25;2.92;;;;;;;12.22;70.72;101271.38;4983015;28;20137;-49
2021/05/27 09:10:43;;;;;;;4.20;3.22;;;;;;;12.32;70.47;101261.56;4986513;28;20029;-53
2021/05/27 09:13:10;;;;;;;4.25;3.25;;;;;;;12.29;71.42;101264.75;4984224;28;20177;-49
2021/05/27 09:15:36;;;;;;;4.30;3.63;;;;;;;12.37;70.80;101267.00;4981041;28;20037;-49
2021/05/27 09:18:02;;;;;;;5.03;3.63;;;;;;;12.36;71.54;101278.00;4983990;28;20030;-49
2021/05/27 09:20:28;;;;;;;3.63;3.33;;;;;;;12.48;71.06;101272.53;4986576;28;20037;-53
2021/05/27 09:23:08;;;;;;;4.38;3.03;;;;;;;12.36;70.77;101275.31;4980898;28;20244;-51
2021/05/27 09:25:36;;;;;;;4.78;3.20;;;;;;;12.75;70.56;101270.75;4983307;28;20034;-50
2021/05/27 09:28:02;;;;;;;3.33;3.03;;;;;;;13.22;69.31;101270.25;4982925;28;20412;-49
2021/05/27 09:30:28;;;;;;;3.45;3.10;;;;;;;13.66;68.39;101270.97;4984336;28;20023;-49
2021/05/27 09:32:54;;;;;;;3.92;3.05;;;;;;;13.80;66.39;101269.47;4983211;28;20096;-50
2021/05/27 09:35:21;;;;;;;5.55;3.10;;;;;;;14.70;64.78;101259.56;4981663;28;20525;-50
2021/05/27 09:37:49;;;;;;;6.72;3.03;;;;;;;14.79;63.09;101260.69;4983843;28;20053;-52
2021/05/27 09:40:40;;;;;;;3.63;2.88;;;;;;;14.52;66.23;101262.72;4982862;28;20388;-50
2021/05/27 09:43:08;;;;;;;4.32;2.97;;;;;;;14.69;64.27;101259.84;4983979;28;20038;-50
2021/05/27 09:45:35;;;;;;;3.10;2.80;;;;;;;14.60;63.64;101269.50;4983840;28;20066;-49
2021/05/27 09:48:18;;;;;;;2.42;2.22;;;;;;;14.11;62.57;101264.31;4983324;28;20121;-50
2021/05/27 09:50:44;;;;;;;3.22;2.50;;;;;;;14.48;61.47;101264.31;4983788;28;20026;-49
2021/05/27 09:53:14;;;;;;;2.50;2.30;;;;;;;14.62;59.16;101253.88;4983369;28;20492;-51
2021/05/27 09:55:40;;;;;;;2.85;2.25;;;;;;;14.41;60.13;101253.75;4983583;28;20484;-51
2021/05/27 09:58:11;;;;;;;4.47;2.30;;;;;;;14.28;61.29;101259.59;4983498;28;20041;-50
2021/05/27 10:00:37;;;;;;;4.05;2.40;;;;;;;14.04;61.51;101266.44;4983929;28;20239;-50
2021/05/27 10:03:34;;;;;;;2.90;2.10;;;;;;;14.41;60.75;101271.81;4983587;28;20097;-51
2021/05/27 10:06:02;;;;;;;3.75;2.42;;;;;;;14.31;61.13;101259.06;4972911;28;20054;-49
2021/05/27 10:08:29;;;;;;;5.00;2.00;;;;;;;14.67;60.58;101254.72;4979677;28;20052;-50
2021/05/27 10:10:56;;;;;;;2.40;2.00;;;;;;;15.32;57.99;101256.00;4981314;28;20100;-50
2021/05/27 10:13:26;;;;;;;3.25;1.80;;;;;;;15.57;56.32;101265.22;4981314;28;20599;-51
2021/05/27 10:15:52;;;;;;;2.10;1.95;;;;;;;15.53;56.41;101258.75;4977543;28;20044;-52
2021/05/27 10:18:19;;;;;;;2.88;1.77;;;;;;;16.23;54.86;101251.72;4983396;28;20452;-48
2021/05/27 10:20:45;;;;;;;1.73;1.60;;;;;;;15.69;54.43;101261.22;4982385;28;20018;-48
2021/05/27 10:23:11;;;;;;;2.20;2.00;;;;;;;15.88;55.18;101253.38;4982389;28;20037;-51
2021/05/27 10:25:37;;;;;;;1.67;1.58;;;;;;;15.88;54.76;101258.78;4981960;28;20037;-49
2021/05/27 10:28:11;;;;;;;2.85;1.80;;;;;;;16.30;54.07;101260.34;4981545;28;20058;-51
2021/05/27 10:30:41;;;;;;;2.42;1.60;;;;;;;15.90;54.36;101255.81;4981334;28;20022;-50
2021/05/27 10:33:07;;;;;;;1.92;1.25;;;;;;;15.52;55.79;101257.94;4981683;28;20100;-49
2021/05/27 10:35:57;;;;;;;2.38;1.45;;;;;;;15.49;56.98;101254.97;4980625;28;20381;-50
2021/05/27 10:38:43;;;;;;;1.63;1.52;;;;;;;16.25;53.25;101249.56;4974728;28;20030;-51
2021/05/27 10:41:12;;;;;;;1.38;1.27;;;;;;;16.58;53.10;101251.63;4981951;28;20034;-52
2021/05/27 10:44:00;;;;;;;2.53;1.00;;;;;;;16.75;51.79;101250.53;4976893;28;20103;-53
2021/05/27 10:46:29;;;;;;;3.15;1.02;;;;;;;16.51;52.09;101253.00;4981569;28;20385;-50
2021/05/27 10:48:55;;;;;;;2.05;1.15;;;;;;;15.98;52.73;101264.19;4980267;28;20393;-50
2021/05/27 10:51:34;;;;;;;1.67;1.10;;;;;;;15.62;53.71;101257.16;4983309;28;20045;-50
2021/05/27 10:54:03;;;;;;;1.77;1.20;;;;;;;15.68;53.80;101258.78;4981820;28;20034;-51
2021/05/27 10:56:31;;;;;;;2.92;1.70;;;;;;;15.75;54.25;101256.63;4980662;28;20085;-49
2021/05/27 10:58:57;;;;;;;3.00;1.50;;;;;;;16.23;51.95;101257.94;4981361;28;20065;-50
2021/05/27 11:01:28;;;;;;;1.45;1.10;;;;;;;16.13;51.66;101252.53;4976087;28;20385;-53
2021/05/27 11:03:55;;;;;;;1.17;1.08;;;;;;;16.22;50.73;101252.81;4979994;28;20041;-51
2021/05/27 11:06:25;;;;;;;3.60;1.83;;;;;;;16.70;50.27;101253.25;4980231;28;20064;-50
2021/05/27 11:09:09;;;;;;;4.13;1.20;;;;;;;16.46;51.22;101243.00;4981055;28;20108;-52
2021/05/27 11:11:46;;;;;;;1.55;1.20;;;;;;;15.84;51.95;101246.09;4970447;28;20042;-50
2021/05/27 11:14:25;;;;;;;1.88;1.30;;;;;;;16.43;52.19;101243.56;4981635;28;20444;-50
2021/05/27 11:17:03;;;;;;;1.50;1.35;;;;;;;16.73;50.69;101241.88;4980875;28;20377;-50
2021/05/27 11:22:31;;;;;;;3.33;1.13;;;;;;;16.31;51.00;101261.97;4973315;28;20046;-49
2021/05/27 11:25:10;;;;;;;1.77;0.82;;;;;;;16.84;49.35;101243.44;4979416;28;20064;-50
2021/05/27 11:27:48;;;;;;;1.27;0.82;;;;;;;17.26;47.45;101242.16;4977327;28;20110;-50
2021/05/27 11:30:33;;;;;;;0.80;0.80;;;;;;;17.84;45.11;101248.50;4981456;28;20495;-52
2021/05/27 11:33:03;;;;;;;1.15;0.82;;;;;;;17.60;45.14;101247.59;4980513;28;20038;-50
2021/05/27 11:35:38;;;;;;;0.90;0.70;;;;;;;18.04;44.61;101245.59;4979700;28;20041;-53
2021/05/27 11:38:07;;;;;;;;;;;;;;;18.62;44.03;101239.28;4981012;28;20114;-49
2021/05/27 11:40:37;;;;;;;1.55;0.50;;;;;;;18.15;44.32;101246.34;4979662;28;19980;-53
2021/05/27 11:43:03;;;;;;;0.50;0.50;;;;;;;17.71;45.35;101247.25;4980085;28;20030;-52
2021/05/27 11:45:50;;;;;;;0.50;0.50;;;;;;;16.73;48.27;101255.41;4982138;28;20044;-49
2021/05/27 11:51:06;;;;;;;0.82;0.73;;;;;;;17.37;47.66;101260.75;4980705;28;20416;-49
2021/05/27 11:53:46;;;;;;;1.10;1.10;;;;;;;17.86;47.55;101257.16;4979825;28;20485;-51